sensor_id;sensor_type;location;lat;lon;timestamp;temperature;humidity
59309;DHT22;48433;53.016;-2.260;2023-02-28T00:01:22;6.30;99.90
59309;DHT22;48433;53.016;-2.260;2023-02-28T00:03:50;6.30;99.90
59309;DHT22;48433;53.016;-2.260;2023-02-28T00:06:17;6.30;99.90
59309;DHT22;48433;53.016;-2.260;2023-02-28T00:08:46;6.30;99.90
59309;DHT22;48433;53.016;-2.260;2023-02-28T00:11:15;6.30;99.90
59309;DHT22;48433;53.016;-2.260;2023-02-28T00:13:45;6.30;99.90
59309;DHT22;48433;53.016;-2.260;2023-02-28T00:16:19;6.30;99.90
59309;DHT22;48433;53.016;-2.260;2023-02-28T00:18:47;6.30;99.90
59309;DHT22;48433;53.016;-2.260;2023-02-28T00:21:16;6.30;99.90
59309;DHT22;48433;53.016;-2.260;2023-02-28T00:23:44;6.30;99.90
59309;DHT22;48433;53.016;-2.260;2023-02-28T00:28:44;6.30;99.90
59309;DHT22;48433;53.016;-2.260;2023-02-28T00:31:12;6.20;99.90
59309;DHT22;48433;53.016;-2.260;2023-02-28T00:33:39;6.20;99.90
59309;DHT22;48433;53.016;-2.260;2023-02-28T00:36:09;6.20;99.90
59309;DHT22;48433;53.016;-2.260;2023-02-28T00:38:38;6.20;99.90
59309;DHT22;48433;53.016;-2.260;2023-02-28T00:43:36;6.20;99.90
59309;DHT22;48433;53.016;-2.260;2023-02-28T00:46:04;6.20;99.90
59309;DHT22;48433;53.016;-2.260;2023-02-28T00:48:32;6.20;99.90
59309;DHT22;48433;53.016;-2.260;2023-02-28T00:51:00;6.20;99.90
59309;DHT22;48433;53.016;-2.260;2023-02-28T00:53:29;6.20;99.90
59309;DHT22;48433;53.016;-2.260;2023-02-28T00:58:26;6.20;99.90
59309;DHT22;48433;53.016;-2.260;2023-02-28T01:00:54;6.20;99.90
59309;DHT22;48433;53.016;-2.260;2023-02-28T01:05:51;6.10;99.90
59309;DHT22;48433;53.016;-2.260;2023-02-28T01:08:21;6.10;99.90
59309;DHT22;48433;53.016;-2.260;2023-02-28T01:13:19;6.00;99.90
59309;DHT22;48433;53.016;-2.260;2023-02-28T01:15:52;6.10;99.90
59309;DHT22;48433;53.016;-2.260;2023-02-28T01:18:22;6.00;99.90
59309;DHT22;48433;53.016;-2.260;2023-02-28T01:20:50;6.10;99.90
59309;DHT22;48433;53.016;-2.260;2023-02-28T01:23:20;6.00;99.90
59309;DHT22;48433;53.016;-2.260;2023-02-28T01:25:51;6.10;99.90
59309;DHT22;48433;53.016;-2.260;2023-02-28T01:30:48;6.00;99.90
59309;DHT22;48433;53.016;-2.260;2023-02-28T01:33:16;6.00;99.90
59309;DHT22;48433;53.016;-2.260;2023-02-28T01:35:44;6.00;99.90
59309;DHT22;48433;53.016;-2.260;2023-02-28T01:38:12;5.90;99.90
59309;DHT22;48433;53.016;-2.260;2023-02-28T01:40:49;6.00;99.90
59309;DHT22;48433;53.016;-2.260;2023-02-28T01:46:12;6.00;99.90
59309;DHT22;48433;53.016;-2.260;2023-02-28T01:51:17;6.00;99.90
59309;DHT22;48433;53.016;-2.260;2023-02-28T01:53:48;6.00;99.90
59309;DHT22;48433;53.016;-2.260;2023-02-28T01:56:20;6.00;99.90
59309;DHT22;48433;53.016;-2.260;2023-02-28T01:58:51;6.00;99.90
59309;DHT22;48433;53.016;-2.260;2023-02-28T02:01:21;6.00;99.90
59309;DHT22;48433;53.016;-2.260;2023-02-28T02:04:01;5.90;99.90
59309;DHT22;48433;53.016;-2.260;2023-02-28T02:06:40;5.90;99.90
59309;DHT22;48433;53.016;-2.260;2023-02-28T02:09:10;5.90;99.90
59309;DHT22;48433;53.016;-2.260;2023-02-28T02:11:40;5.90;99.90
59309;DHT22;48433;53.016;-2.260;2023-02-28T02:17:08;5.90;99.90
59309;DHT22;48433;53.016;-2.260;2023-02-28T02:31:45;5.90;99.90
59309;DHT22;48433;53.016;-2.260;2023-02-28T02:45:59;5.90;99.90
59309;DHT22;48433;53.016;-2.260;2023-02-28T02:48:27;5.90;99.90
59309;DHT22;48433;53.016;-2.260;2023-02-28T02:51:00;5.90;99.90
59309;DHT22;48433;53.016;-2.260;2023-02-28T02:53:32;5.90;99.90
59309;DHT22;48433;53.016;-2.260;2023-02-28T02:56:03;5.80;99.90
59309;DHT22;48433;53.016;-2.260;2023-02-28T02:58:37;5.80;99.90
59309;DHT22;48433;53.016;-2.260;2023-02-28T03:01:14;5.70;99.90
59309;DHT22;48433;53.016;-2.260;2023-02-28T03:08:40;5.50;99.90
59309;DHT22;48433;53.016;-2.260;2023-02-28T03:11:13;5.50;99.90
59309;DHT22;48433;53.016;-2.260;2023-02-28T03:13:50;5.50;99.90
59309;DHT22;48433;53.016;-2.260;2023-02-28T03:21:56;5.60;99.90
59309;DHT22;48433;53.016;-2.260;2023-02-28T03:27:29;5.60;99.90
59309;DHT22;48433;53.016;-2.260;2023-02-28T03:30:03;5.50;99.90
59309;DHT22;48433;53.016;-2.260;2023-02-28T03:33:08;5.50;99.90
59309;DHT22;48433;53.016;-2.260;2023-02-28T03:35:32;5.50;99.90
59309;DHT22;48433;53.016;-2.260;2023-02-28T03:38:11;5.50;99.90
59309;DHT22;48433;53.016;-2.260;2023-02-28T03:40:48;5.50;99.90
59309;DHT22;48433;53.016;-2.260;2023-02-28T03:43:23;5.50;99.90
59309;DHT22;48433;53.016;-2.260;2023-02-28T03:45:53;5.50;99.90
59309;DHT22;48433;53.016;-2.260;2023-02-28T03:48:41;5.50;99.90
59309;DHT22;48433;53.016;-2.260;2023-02-28T03:51:14;5.50;99.90
59309;DHT22;48433;53.016;-2.260;2023-02-28T03:53:49;5.40;99.90
59309;DHT22;48433;53.016;-2.260;2023-02-28T03:56:48;5.30;99.90
59309;DHT22;48433;53.016;-2.260;2023-02-28T03:59:30;5.10;99.90
59309;DHT22;48433;53.016;-2.260;2023-02-28T04:04:30;4.80;99.90
59309;DHT22;48433;53.016;-2.260;2023-02-28T04:07:03;4.70;99.90
59309;DHT22;48433;53.016;-2.260;2023-02-28T04:21:52;4.60;99.90
59309;DHT22;48433;53.016;-2.260;2023-02-28T04:24:25;4.70;99.90
59309;DHT22;48433;53.016;-2.260;2023-02-28T04:26:56;4.80;99.90
59309;DHT22;48433;53.016;-2.260;2023-02-28T04:29:26;4.90;99.90
59309;DHT22;48433;53.016;-2.260;2023-02-28T04:31:55;4.90;99.90
59309;DHT22;48433;53.016;-2.260;2023-02-28T04:34:29;5.00;99.90
59309;DHT22;48433;53.016;-2.260;2023-02-28T04:36:57;5.00;99.90
59309;DHT22;48433;53.016;-2.260;2023-02-28T04:39:40;5.00;99.90
59309;DHT22;48433;53.016;-2.260;2023-02-28T04:42:08;5.10;99.90
59309;DHT22;48433;53.016;-2.260;2023-02-28T04:44:36;5.10;99.90
59309;DHT22;48433;53.016;-2.260;2023-02-28T04:51:59;5.10;99.90
59309;DHT22;48433;53.016;-2.260;2023-02-28T04:54:27;5.10;99.90
59309;DHT22;48433;53.016;-2.260;2023-02-28T04:56:55;5.10;99.90
59309;DHT22;48433;53.016;-2.260;2023-02-28T05:09:15;5.10;99.90
59309;DHT22;48433;53.016;-2.260;2023-02-28T05:14:12;5.20;99.90
59309;DHT22;48433;53.016;-2.260;2023-02-28T05:16:40;5.20;99.90
59309;DHT22;48433;53.016;-2.260;2023-02-28T05:19:08;5.20;99.90
59309;DHT22;48433;53.016;-2.260;2023-02-28T05:21:40;5.20;99.90
59309;DHT22;48433;53.016;-2.260;2023-02-28T05:24:12;5.20;99.90
59309;DHT22;48433;53.016;-2.260;2023-02-28T05:26:41;5.20;99.90
59309;DHT22;48433;53.016;-2.260;2023-02-28T05:29:09;5.20;99.90
59309;DHT22;48433;53.016;-2.260;2023-02-28T05:43:57;5.40;99.90
59309;DHT22;48433;53.016;-2.260;2023-02-28T05:46:27;5.30;99.90
59309;DHT22;48433;53.016;-2.260;2023-02-28T05:51:25;5.40;99.90
59309;DHT22;48433;53.016;-2.260;2023-02-28T05:56:20;5.40;99.90
59309;DHT22;48433;53.016;-2.260;2023-02-28T05:58:48;5.40;99.90
59309;DHT22;48433;53.016;-2.260;2023-02-28T06:01:37;5.40;99.90
59309;DHT22;48433;53.016;-2.260;2023-02-28T06:04:07;5.40;99.90
59309;DHT22;48433;53.016;-2.260;2023-02-28T06:06:46;5.50;99.90
59309;DHT22;48433;53.016;-2.260;2023-02-28T06:09:15;5.50;99.90
59309;DHT22;48433;53.016;-2.260;2023-02-28T06:11:43;5.50;99.90
59309;DHT22;48433;53.016;-2.260;2023-02-28T06:14:15;5.40;99.90
59309;DHT22;48433;53.016;-2.260;2023-02-28T06:16:44;5.40;99.90
59309;DHT22;48433;53.016;-2.260;2023-02-28T06:21:39;5.40;99.90
59309;DHT22;48433;53.016;-2.260;2023-02-28T06:24:07;5.30;99.90
59309;DHT22;48433;53.016;-2.260;2023-02-28T06:33:59;5.30;99.90
59309;DHT22;48433;53.016;-2.260;2023-02-28T06:41:25;5.30;99.90
59309;DHT22;48433;53.016;-2.260;2023-02-28T06:43:53;5.30;99.90
59309;DHT22;48433;53.016;-2.260;2023-02-28T06:46:20;5.30;99.90
59309;DHT22;48433;53.016;-2.260;2023-02-28T06:48:48;5.20;99.90
59309;DHT22;48433;53.016;-2.260;2023-02-28T06:51:18;5.20;99.90
59309;DHT22;48433;53.016;-2.260;2023-02-28T06:56:16;5.20;99.90
59309;DHT22;48433;53.016;-2.260;2023-02-28T06:58:49;5.20;99.90
59309;DHT22;48433;53.016;-2.260;2023-02-28T07:01:18;5.20;99.90
59309;DHT22;48433;53.016;-2.260;2023-02-28T07:03:46;5.30;99.90
59309;DHT22;48433;53.016;-2.260;2023-02-28T07:06:20;5.30;99.90
59309;DHT22;48433;53.016;-2.260;2023-02-28T07:08:51;5.30;99.90
59309;DHT22;48433;53.016;-2.260;2023-02-28T07:11:23;5.30;99.90
59309;DHT22;48433;53.016;-2.260;2023-02-28T07:13:56;5.40;99.90
59309;DHT22;48433;53.016;-2.260;2023-02-28T07:16:25;5.40;99.90
59309;DHT22;48433;53.016;-2.260;2023-02-28T07:18:54;5.40;99.90
59309;DHT22;48433;53.016;-2.260;2023-02-28T07:23:50;5.40;99.90
59309;DHT22;48433;53.016;-2.260;2023-02-28T07:26:19;5.50;99.90
59309;DHT22;48433;53.016;-2.260;2023-02-28T07:28:47;5.50;99.90
59309;DHT22;48433;53.016;-2.260;2023-02-28T07:31:16;5.50;99.90
59309;DHT22;48433;53.016;-2.260;2023-02-28T07:33:44;5.50;99.90
59309;DHT22;48433;53.016;-2.260;2023-02-28T07:36:14;5.50;99.90
59309;DHT22;48433;53.016;-2.260;2023-02-28T07:38:44;5.60;99.90
59309;DHT22;48433;53.016;-2.260;2023-02-28T07:41:16;5.60;99.90
59309;DHT22;48433;53.016;-2.260;2023-02-28T07:43:45;5.60;99.90
59309;DHT22;48433;53.016;-2.260;2023-02-28T07:46:15;5.60;99.90
59309;DHT22;48433;53.016;-2.260;2023-02-28T07:48:44;5.60;99.90
59309;DHT22;48433;53.016;-2.260;2023-02-28T07:51:11;5.60;99.90
59309;DHT22;48433;53.016;-2.260;2023-02-28T07:53:39;5.70;99.90
59309;DHT22;48433;53.016;-2.260;2023-02-28T08:01:09;5.70;99.90
59309;DHT22;48433;53.016;-2.260;2023-02-28T08:03:38;5.80;99.90
59309;DHT22;48433;53.016;-2.260;2023-02-28T08:06:07;5.80;99.90
59309;DHT22;48433;53.016;-2.260;2023-02-28T08:08:35;5.80;99.90
59309;DHT22;48433;53.016;-2.260;2023-02-28T08:16:01;5.90;99.90
59309;DHT22;48433;53.016;-2.260;2023-02-28T08:23:25;6.00;99.90
59309;DHT22;48433;53.016;-2.260;2023-02-28T08:25:53;6.10;99.90
59309;DHT22;48433;53.016;-2.260;2023-02-28T08:35:56;6.40;99.90
59309;DHT22;48433;53.016;-2.260;2023-02-28T08:41:03;6.50;99.90
59309;DHT22;48433;53.016;-2.260;2023-02-28T08:43:34;6.60;99.90
59309;DHT22;48433;53.016;-2.260;2023-02-28T08:46:02;6.60;99.90
59309;DHT22;48433;53.016;-2.260;2023-02-28T08:48:33;6.70;99.90
59309;DHT22;48433;53.016;-2.260;2023-02-28T08:51:06;6.80;99.90
59309;DHT22;48433;53.016;-2.260;2023-02-28T08:53:36;6.80;99.90
59309;DHT22;48433;53.016;-2.260;2023-02-28T08:56:08;6.90;99.90
59309;DHT22;48433;53.016;-2.260;2023-02-28T09:01:12;7.00;99.90
59309;DHT22;48433;53.016;-2.260;2023-02-28T09:03:40;7.10;99.90
59309;DHT22;48433;53.016;-2.260;2023-02-28T09:06:14;7.20;99.90
59309;DHT22;48433;53.016;-2.260;2023-02-28T09:08:42;7.20;99.90
59309;DHT22;48433;53.016;-2.260;2023-02-28T09:11:11;7.30;99.90
59309;DHT22;48433;53.016;-2.260;2023-02-28T09:13:39;7.30;99.90
59309;DHT22;48433;53.016;-2.260;2023-02-28T09:16:10;7.40;99.90
59309;DHT22;48433;53.016;-2.260;2023-02-28T09:18:39;7.40;99.90
59309;DHT22;48433;53.016;-2.260;2023-02-28T09:21:10;7.40;99.90
59309;DHT22;48433;53.016;-2.260;2023-02-28T09:23:39;7.40;99.90
59309;DHT22;48433;53.016;-2.260;2023-02-28T09:26:07;7.40;99.90
59309;DHT22;48433;53.016;-2.260;2023-02-28T09:31:03;7.30;99.90
59309;DHT22;48433;53.016;-2.260;2023-02-28T09:33:32;7.30;99.90
59309;DHT22;48433;53.016;-2.260;2023-02-28T09:36:02;7.20;99.90
59309;DHT22;48433;53.016;-2.260;2023-02-28T09:41:02;7.50;99.90
59309;DHT22;48433;53.016;-2.260;2023-02-28T09:43:37;7.60;99.90
59309;DHT22;48433;53.016;-2.260;2023-02-28T09:48:49;8.00;99.90
59309;DHT22;48433;53.016;-2.260;2023-02-28T09:53:44;8.50;99.90
59309;DHT22;48433;53.016;-2.260;2023-02-28T09:56:33;8.90;99.90
59309;DHT22;48433;53.016;-2.260;2023-02-28T10:02:04;9.70;99.90
59309;DHT22;48433;53.016;-2.260;2023-02-28T10:04:58;9.80;99.90
59309;DHT22;48433;53.016;-2.260;2023-02-28T10:10:04;9.60;99.90
59309;DHT22;48433;53.016;-2.260;2023-02-28T10:12:38;9.50;99.90
59309;DHT22;48433;53.016;-2.260;2023-02-28T10:15:14;9.40;99.90
59309;DHT22;48433;53.016;-2.260;2023-02-28T10:17:47;9.30;99.90
59309;DHT22;48433;53.016;-2.260;2023-02-28T10:20:27;9.10;99.90
59309;DHT22;48433;53.016;-2.260;2023-02-28T10:23:04;9.00;99.90
59309;DHT22;48433;53.016;-2.260;2023-02-28T10:25:37;9.00;99.90
59309;DHT22;48433;53.016;-2.260;2023-02-28T10:28:15;8.90;99.90
59309;DHT22;48433;53.016;-2.260;2023-02-28T10:30:50;8.90;99.90
59309;DHT22;48433;53.016;-2.260;2023-02-28T10:35:53;9.20;99.90
59309;DHT22;48433;53.016;-2.260;2023-02-28T10:38:25;9.40;99.90
59309;DHT22;48433;53.016;-2.260;2023-02-28T10:41:06;9.90;99.90
59309;DHT22;48433;53.016;-2.260;2023-02-28T10:43:35;10.20;99.90
59309;DHT22;48433;53.016;-2.260;2023-02-28T10:46:11;10.20;99.90
59309;DHT22;48433;53.016;-2.260;2023-02-28T10:48:57;9.90;99.90
59309;DHT22;48433;53.016;-2.260;2023-02-28T10:51:35;9.90;99.90
59309;DHT22;48433;53.016;-2.260;2023-02-28T10:54:04;9.80;99.90
59309;DHT22;48433;53.016;-2.260;2023-02-28T10:56:33;9.80;99.90
59309;DHT22;48433;53.016;-2.260;2023-02-28T10:59:30;10.10;99.90
59309;DHT22;48433;53.016;-2.260;2023-02-28T11:01:58;10.20;99.90
59309;DHT22;48433;53.016;-2.260;2023-02-28T11:06:59;10.20;99.90
59309;DHT22;48433;53.016;-2.260;2023-02-28T11:09:32;10.30;99.90
59309;DHT22;48433;53.016;-2.260;2023-02-28T11:12:05;10.40;99.90
59309;DHT22;48433;53.016;-2.260;2023-02-28T11:14:46;10.40;99.90
59309;DHT22;48433;53.016;-2.260;2023-02-28T11:17:21;10.50;99.90
59309;DHT22;48433;53.016;-2.260;2023-02-28T11:20:06;10.60;99.90
59309;DHT22;48433;53.016;-2.260;2023-02-28T11:22:38;10.70;99.90
59309;DHT22;48433;53.016;-2.260;2023-02-28T11:25:29;10.90;99.90
59309;DHT22;48433;53.016;-2.260;2023-02-28T11:28:00;11.20;99.90
59309;DHT22;48433;53.016;-2.260;2023-02-28T11:30:33;11.20;99.90
59309;DHT22;48433;53.016;-2.260;2023-02-28T11:33:21;11.10;99.90
59309;DHT22;48433;53.016;-2.260;2023-02-28T11:35:50;11.10;99.90
59309;DHT22;48433;53.016;-2.260;2023-02-28T11:38:18;10.90;99.90
59309;DHT22;48433;53.016;-2.260;2023-02-28T11:51:34;10.50;99.90
59309;DHT22;48433;53.016;-2.260;2023-02-28T11:56:52;10.60;99.90
59309;DHT22;48433;53.016;-2.260;2023-02-28T12:05:18;10.00;99.90
59309;DHT22;48433;53.016;-2.260;2023-02-28T12:13:30;9.60;99.90
59309;DHT22;48433;53.016;-2.260;2023-02-28T12:26:49;9.50;99.90
59309;DHT22;48433;53.016;-2.260;2023-02-28T12:29:28;9.50;99.90
59309;DHT22;48433;53.016;-2.260;2023-02-28T12:32:04;9.60;99.90
59309;DHT22;48433;53.016;-2.260;2023-02-28T12:34:39;9.60;99.90
59309;DHT22;48433;53.016;-2.260;2023-02-28T12:37:27;9.70;99.90
59309;DHT22;48433;53.016;-2.260;2023-02-28T12:40:03;9.80;99.90
59309;DHT22;48433;53.016;-2.260;2023-02-28T12:42:56;10.10;99.90
59309;DHT22;48433;53.016;-2.260;2023-02-28T12:45:48;10.10;99.90
59309;DHT22;48433;53.016;-2.260;2023-02-28T12:48:37;10.10;99.90
59309;DHT22;48433;53.016;-2.260;2023-02-28T12:51:07;10.20;99.90
59309;DHT22;48433;53.016;-2.260;2023-02-28T12:53:46;10.20;99.90
59309;DHT22;48433;53.016;-2.260;2023-02-28T12:56:44;10.30;99.90
59309;DHT22;48433;53.016;-2.260;2023-02-28T12:59:52;10.40;99.90
59309;DHT22;48433;53.016;-2.260;2023-02-28T13:08:12;10.10;99.90
59309;DHT22;48433;53.016;-2.260;2023-02-28T13:10:48;10.00;99.90
59309;DHT22;48433;53.016;-2.260;2023-02-28T13:13:23;9.90;99.90
59309;DHT22;48433;53.016;-2.260;2023-02-28T13:16:07;9.80;99.90
59309;DHT22;48433;53.016;-2.260;2023-02-28T13:18:38;9.60;99.90
59309;DHT22;48433;53.016;-2.260;2023-02-28T13:21:09;9.60;99.90
59309;DHT22;48433;53.016;-2.260;2023-02-28T13:24:00;9.60;99.90
59309;DHT22;48433;53.016;-2.260;2023-02-28T13:32:18;9.70;99.90
59309;DHT22;48433;53.016;-2.260;2023-02-28T13:37:42;9.60;99.90
59309;DHT22;48433;53.016;-2.260;2023-02-28T13:58:55;9.40;99.90
59309;DHT22;48433;53.016;-2.260;2023-02-28T14:07:02;9.30;99.90
59309;DHT22;48433;53.016;-2.260;2023-02-28T14:09:38;9.30;99.90
59309;DHT22;48433;53.016;-2.260;2023-02-28T14:15:46;9.40;99.90
59309;DHT22;48433;53.016;-2.260;2023-02-28T14:18:18;9.40;99.90
59309;DHT22;48433;53.016;-2.260;2023-02-28T14:20:49;9.30;99.90
59309;DHT22;48433;53.016;-2.260;2023-02-28T14:26:10;9.20;99.90
59309;DHT22;48433;53.016;-2.260;2023-02-28T14:37:00;9.30;99.90
59309;DHT22;48433;53.016;-2.260;2023-02-28T14:39:29;9.30;99.90
59309;DHT22;48433;53.016;-2.260;2023-02-28T14:42:00;9.30;99.90
59309;DHT22;48433;53.016;-2.260;2023-02-28T14:44:32;9.20;99.90
59309;DHT22;48433;53.016;-2.260;2023-02-28T14:47:01;9.10;99.90
59309;DHT22;48433;53.016;-2.260;2023-02-28T14:49:41;9.00;99.90
59309;DHT22;48433;53.016;-2.260;2023-02-28T14:54:38;8.90;99.90
59309;DHT22;48433;53.016;-2.260;2023-02-28T14:57:12;8.80;99.90
59309;DHT22;48433;53.016;-2.260;2023-02-28T15:02:39;8.70;99.90
59309;DHT22;48433;53.016;-2.260;2023-02-28T15:05:16;8.70;99.90
59309;DHT22;48433;53.016;-2.260;2023-02-28T15:07:48;8.70;99.90
59309;DHT22;48433;53.016;-2.260;2023-02-28T15:10:26;8.80;99.90
59309;DHT22;48433;53.016;-2.260;2023-02-28T15:21:13;9.00;99.90
59309;DHT22;48433;53.016;-2.260;2023-02-28T15:26:57;9.00;99.90
59309;DHT22;48433;53.016;-2.260;2023-02-28T15:29:28;9.00;99.90
59309;DHT22;48433;53.016;-2.260;2023-02-28T15:32:02;8.90;99.90
59309;DHT22;48433;53.016;-2.260;2023-02-28T15:34:37;8.80;99.90
59309;DHT22;48433;53.016;-2.260;2023-02-28T15:37:37;8.80;99.90
59309;DHT22;48433;53.016;-2.260;2023-02-28T15:40:22;8.60;99.90
59309;DHT22;48433;53.016;-2.260;2023-02-28T15:43:15;8.50;99.90
59309;DHT22;48433;53.016;-2.260;2023-02-28T15:46:07;8.50;99.90
59309;DHT22;48433;53.016;-2.260;2023-02-28T15:48:43;8.40;99.90
59309;DHT22;48433;53.016;-2.260;2023-02-28T15:56:33;8.40;99.90
59309;DHT22;48433;53.016;-2.260;2023-02-28T15:59:06;8.40;99.90
59309;DHT22;48433;53.016;-2.260;2023-02-28T16:01:35;8.40;99.90
59309;DHT22;48433;53.016;-2.260;2023-02-28T16:04:15;8.40;99.90
59309;DHT22;48433;53.016;-2.260;2023-02-28T16:09:27;8.40;99.90
59309;DHT22;48433;53.016;-2.260;2023-02-28T16:11:56;8.50;99.90
59309;DHT22;48433;53.016;-2.260;2023-02-28T16:14:27;8.30;99.90
59309;DHT22;48433;53.016;-2.260;2023-02-28T16:17:04;8.50;99.90
59309;DHT22;48433;53.016;-2.260;2023-02-28T16:22:01;8.50;99.90
59309;DHT22;48433;53.016;-2.260;2023-02-28T16:24:28;8.50;99.90
59309;DHT22;48433;53.016;-2.260;2023-02-28T16:26:56;8.50;99.90
59309;DHT22;48433;53.016;-2.260;2023-02-28T16:29:30;8.50;99.90
59309;DHT22;48433;53.016;-2.260;2023-02-28T16:32:00;8.50;99.90
59309;DHT22;48433;53.016;-2.260;2023-02-28T16:34:28;8.50;99.90
59309;DHT22;48433;53.016;-2.260;2023-02-28T16:36:56;8.50;99.90
59309;DHT22;48433;53.016;-2.260;2023-02-28T16:39:24;8.50;99.90
59309;DHT22;48433;53.016;-2.260;2023-02-28T16:41:52;8.50;99.90
59309;DHT22;48433;53.016;-2.260;2023-02-28T16:44:33;8.50;99.90
59309;DHT22;48433;53.016;-2.260;2023-02-28T16:47:03;8.40;99.90
59309;DHT22;48433;53.016;-2.260;2023-02-28T16:54:27;8.30;99.90
59309;DHT22;48433;53.016;-2.260;2023-02-28T16:59:24;8.30;99.90
59309;DHT22;48433;53.016;-2.260;2023-02-28T17:01:54;8.30;99.90
59309;DHT22;48433;53.016;-2.260;2023-02-28T17:04:27;8.30;99.90
59309;DHT22;48433;53.016;-2.260;2023-02-28T17:06:55;8.30;99.90
59309;DHT22;48433;53.016;-2.260;2023-02-28T17:09:23;8.20;99.90
59309;DHT22;48433;53.016;-2.260;2023-02-28T17:17:05;8.10;99.90
59309;DHT22;48433;53.016;-2.260;2023-02-28T17:19:33;8.00;99.90
59309;DHT22;48433;53.016;-2.260;2023-02-28T17:22:03;8.10;99.90
59309;DHT22;48433;53.016;-2.260;2023-02-28T17:24:31;8.10;99.90
59309;DHT22;48433;53.016;-2.260;2023-02-28T17:29:26;8.00;99.90
59309;DHT22;48433;53.016;-2.260;2023-02-28T17:31:54;8.00;99.90
59309;DHT22;48433;53.016;-2.260;2023-02-28T17:34:22;8.00;99.90
59309;DHT22;48433;53.016;-2.260;2023-02-28T17:36:51;8.00;99.90
59309;DHT22;48433;53.016;-2.260;2023-02-28T17:39:19;8.00;99.90
59309;DHT22;48433;53.016;-2.260;2023-02-28T17:41:55;8.00;99.90
59309;DHT22;48433;53.016;-2.260;2023-02-28T17:44:23;7.90;99.90
59309;DHT22;48433;53.016;-2.260;2023-02-28T17:46:52;7.90;99.90
59309;DHT22;48433;53.016;-2.260;2023-02-28T17:49:20;7.90;99.90
59309;DHT22;48433;53.016;-2.260;2023-02-28T17:51:48;7.90;99.90
59309;DHT22;48433;53.016;-2.260;2023-02-28T18:01:41;7.80;99.90
59309;DHT22;48433;53.016;-2.260;2023-02-28T18:04:09;7.80;99.90
59309;DHT22;48433;53.016;-2.260;2023-02-28T18:06:39;7.80;99.90
59309;DHT22;48433;53.016;-2.260;2023-02-28T18:09:14;7.70;99.90
59309;DHT22;48433;53.016;-2.260;2023-02-28T18:14:16;7.70;99.90
59309;DHT22;48433;53.016;-2.260;2023-02-28T18:16:44;7.70;99.90
59309;DHT22;48433;53.016;-2.260;2023-02-28T18:21:46;7.60;99.90
59309;DHT22;48433;53.016;-2.260;2023-02-28T18:24:15;7.60;99.90
59309;DHT22;48433;53.016;-2.260;2023-02-28T18:26:43;7.60;99.90
59309;DHT22;48433;53.016;-2.260;2023-02-28T18:29:29;7.60;99.90
59309;DHT22;48433;53.016;-2.260;2023-02-28T18:31:58;7.60;99.90
59309;DHT22;48433;53.016;-2.260;2023-02-28T18:41:51;7.60;99.90
59309;DHT22;48433;53.016;-2.260;2023-02-28T18:46:48;7.60;99.90
59309;DHT22;48433;53.016;-2.260;2023-02-28T18:49:17;7.50;99.90
59309;DHT22;48433;53.016;-2.260;2023-02-28T18:51:45;7.60;99.90
59309;DHT22;48433;53.016;-2.260;2023-02-28T18:54:14;7.50;99.90
59309;DHT22;48433;53.016;-2.260;2023-02-28T18:56:42;7.50;99.90
59309;DHT22;48433;53.016;-2.260;2023-02-28T18:59:11;7.50;99.90
59309;DHT22;48433;53.016;-2.260;2023-02-28T19:04:11;7.50;99.90
59309;DHT22;48433;53.016;-2.260;2023-02-28T19:09:08;7.50;99.90
59309;DHT22;48433;53.016;-2.260;2023-02-28T19:16:32;7.40;99.90
59309;DHT22;48433;53.016;-2.260;2023-02-28T19:23:56;7.50;99.90
59309;DHT22;48433;53.016;-2.260;2023-02-28T19:26:24;7.50;99.90
59309;DHT22;48433;53.016;-2.260;2023-02-28T19:31:23;7.50;99.90
59309;DHT22;48433;53.016;-2.260;2023-02-28T19:33:51;7.50;99.90
59309;DHT22;48433;53.016;-2.260;2023-02-28T19:36:20;7.50;99.90
59309;DHT22;48433;53.016;-2.260;2023-02-28T19:41:17;7.40;99.90
59309;DHT22;48433;53.016;-2.260;2023-02-28T19:43:46;7.30;99.90
59309;DHT22;48433;53.016;-2.260;2023-02-28T19:46:14;7.20;99.90
59309;DHT22;48433;53.016;-2.260;2023-02-28T19:51:12;7.00;99.90
59309;DHT22;48433;53.016;-2.260;2023-02-28T19:53:41;6.90;99.90
59309;DHT22;48433;53.016;-2.260;2023-02-28T19:56:10;6.80;99.90
59309;DHT22;48433;53.016;-2.260;2023-02-28T19:58:38;6.80;99.90
59309;DHT22;48433;53.016;-2.260;2023-02-28T20:01:12;6.80;99.90
59309;DHT22;48433;53.016;-2.260;2023-02-28T20:06:10;6.90;99.90
59309;DHT22;48433;53.016;-2.260;2023-02-28T20:08:40;6.90;99.90
59309;DHT22;48433;53.016;-2.260;2023-02-28T20:11:11;6.90;99.90
59309;DHT22;48433;53.016;-2.260;2023-02-28T20:13:39;7.00;99.90
59309;DHT22;48433;53.016;-2.260;2023-02-28T20:16:08;7.00;99.90
59309;DHT22;48433;53.016;-2.260;2023-02-28T20:18:37;7.00;99.90
59309;DHT22;48433;53.016;-2.260;2023-02-28T20:21:10;7.00;99.90
59309;DHT22;48433;53.016;-2.260;2023-02-28T20:23:39;7.00;99.90
59309;DHT22;48433;53.016;-2.260;2023-02-28T20:26:07;7.00;99.90
59309;DHT22;48433;53.016;-2.260;2023-02-28T20:28:35;7.00;99.90
59309;DHT22;48433;53.016;-2.260;2023-02-28T20:31:10;7.00;99.90
59309;DHT22;48433;53.016;-2.260;2023-02-28T20:33:39;7.00;99.90
59309;DHT22;48433;53.016;-2.260;2023-02-28T20:36:07;7.00;99.90
59309;DHT22;48433;53.016;-2.260;2023-02-28T20:38:37;6.90;99.90
59309;DHT22;48433;53.016;-2.260;2023-02-28T20:41:04;6.80;99.90
59309;DHT22;48433;53.016;-2.260;2023-02-28T20:43:33;6.80;99.90
59309;DHT22;48433;53.016;-2.260;2023-02-28T20:48:30;6.80;99.90
59309;DHT22;48433;53.016;-2.260;2023-02-28T20:50:59;6.90;99.90
59309;DHT22;48433;53.016;-2.260;2023-02-28T20:53:26;6.90;99.90
59309;DHT22;48433;53.016;-2.260;2023-02-28T20:58:30;6.90;99.90
59309;DHT22;48433;53.016;-2.260;2023-02-28T21:01:22;7.00;99.90
59309;DHT22;48433;53.016;-2.260;2023-02-28T21:04:01;6.80;99.90
59309;DHT22;48433;53.016;-2.260;2023-02-28T21:06:32;7.00;99.90
59309;DHT22;48433;53.016;-2.260;2023-02-28T21:09:02;7.00;99.90
59309;DHT22;48433;53.016;-2.260;2023-02-28T21:11:32;7.00;99.90
59309;DHT22;48433;53.016;-2.260;2023-02-28T21:14:03;7.00;99.90
59309;DHT22;48433;53.016;-2.260;2023-02-28T21:16:31;7.00;99.90
59309;DHT22;48433;53.016;-2.260;2023-02-28T21:21:39;7.00;99.90
59309;DHT22;48433;53.016;-2.260;2023-02-28T21:24:12;6.90;99.90
59309;DHT22;48433;53.016;-2.260;2023-02-28T21:26:41;6.90;99.90
59309;DHT22;48433;53.016;-2.260;2023-02-28T21:29:09;6.80;99.90
59309;DHT22;48433;53.016;-2.260;2023-02-28T21:31:37;6.80;99.90
59309;DHT22;48433;53.016;-2.260;2023-02-28T21:34:06;6.70;99.90
59309;DHT22;48433;53.016;-2.260;2023-02-28T21:36:40;6.60;99.90
59309;DHT22;48433;53.016;-2.260;2023-02-28T21:39:13;6.50;99.90
59309;DHT22;48433;53.016;-2.260;2023-02-28T21:41:41;6.60;99.90
59309;DHT22;48433;53.016;-2.260;2023-02-28T21:44:10;6.50;99.90
59309;DHT22;48433;53.016;-2.260;2023-02-28T21:46:46;6.50;99.90
59309;DHT22;48433;53.016;-2.260;2023-02-28T21:49:15;6.50;99.90
59309;DHT22;48433;53.016;-2.260;2023-02-28T21:51:43;6.50;99.90
59309;DHT22;48433;53.016;-2.260;2023-02-28T21:54:11;6.50;99.90
59309;DHT22;48433;53.016;-2.260;2023-02-28T21:56:39;6.50;99.90
59309;DHT22;48433;53.016;-2.260;2023-02-28T21:59:07;6.50;99.90
59309;DHT22;48433;53.016;-2.260;2023-02-28T22:01:40;6.50;99.90
59309;DHT22;48433;53.016;-2.260;2023-02-28T22:04:13;6.50;99.90